sensor_id;sensor_type;location;lat;lon;timestamp;P1;durP1;ratioP1;P2;durP2;ratioP2
66739;SDS011;53653;52.188;8.602;2023-12-07T00:01:08;30.53;;;13.37;;
66739;SDS011;53653;52.188;8.602;2023-12-07T00:03:33;31.70;;;13.68;;
66739;SDS011;53653;52.188;8.602;2023-12-07T00:05:59;32.63;;;13.47;;
66739;SDS011;53653;52.188;8.602;2023-12-07T00:08:24;30.80;;;13.43;;
66739;SDS011;53653;52.188;8.602;2023-12-07T00:10:50;36.30;;;14.10;;
66739;SDS011;53653;52.188;8.602;2023-12-07T00:13:15;37.70;;;14.47;;
66739;SDS011;53653;52.188;8.602;2023-12-07T00:15:42;31.25;;;12.88;;
66739;SDS011;53653;52.188;8.602;2023-12-07T00:18:07;31.13;;;14.00;;
66739;SDS011;53653;52.188;8.602;2023-12-07T00:20:32;36.37;;;14.63;;
66739;SDS011;53653;52.188;8.602;2023-12-07T00:22:58;33.23;;;14.13;;
66739;SDS011;53653;52.188;8.602;2023-12-07T00:25:23;37.63;;;14.93;;
66739;SDS011;53653;52.188;8.602;2023-12-07T00:27:49;34.17;;;14.02;;
66739;SDS011;53653;52.188;8.602;2023-12-07T00:30:14;35.97;;;14.43;;
66739;SDS011;53653;52.188;8.602;2023-12-07T00:32:40;32.17;;;14.27;;
66739;SDS011;53653;52.188;8.602;2023-12-07T00:35:12;33.57;;;13.40;;
66739;SDS011;53653;52.188;8.602;2023-12-07T00:37:37;37.75;;;15.20;;
66739;SDS011;53653;52.188;8.602;2023-12-07T00:40:03;34.17;;;14.20;;
66739;SDS011;53653;52.188;8.602;2023-12-07T00:42:29;38.65;;;14.43;;
66739;SDS011;53653;52.188;8.602;2023-12-07T00:44:55;37.25;;;14.35;;
66739;SDS011;53653;52.188;8.602;2023-12-07T00:47:20;31.83;;;13.37;;
66739;SDS011;53653;52.188;8.602;2023-12-07T00:49:46;35.17;;;14.02;;
66739;SDS011;53653;52.188;8.602;2023-12-07T00:52:11;34.90;;;15.17;;
66739;SDS011;53653;52.188;8.602;2023-12-07T00:54:37;32.45;;;14.23;;
66739;SDS011;53653;52.188;8.602;2023-12-07T00:57:04;36.30;;;14.38;;
66739;SDS011;53653;52.188;8.602;2023-12-07T00:59:30;33.93;;;13.57;;
66739;SDS011;53653;52.188;8.602;2023-12-07T01:02:00;32.83;;;13.48;;
66739;SDS011;53653;52.188;8.602;2023-12-07T01:04:27;37.40;;;14.02;;
66739;SDS011;53653;52.188;8.602;2023-12-07T01:06:53;36.00;;;14.00;;
66739;SDS011;53653;52.188;8.602;2023-12-07T01:09:18;32.53;;;13.47;;
66739;SDS011;53653;52.188;8.602;2023-12-07T01:11:44;34.30;;;13.87;;
66739;SDS011;53653;52.188;8.602;2023-12-07T01:14:10;35.72;;;14.73;;
66739;SDS011;53653;52.188;8.602;2023-12-07T01:16:36;40.15;;;15.15;;
66739;SDS011;53653;52.188;8.602;2023-12-07T01:19:02;39.13;;;15.33;;
66739;SDS011;53653;52.188;8.602;2023-12-07T01:21:27;34.25;;;14.45;;
66739;SDS011;53653;52.188;8.602;2023-12-07T01:23:53;37.33;;;13.60;;
66739;SDS011;53653;52.188;8.602;2023-12-07T01:26:18;35.33;;;14.37;;
66739;SDS011;53653;52.188;8.602;2023-12-07T01:28:44;35.60;;;14.43;;
66739;SDS011;53653;52.188;8.602;2023-12-07T01:31:10;32.40;;;14.37;;
66739;SDS011;53653;52.188;8.602;2023-12-07T01:33:35;34.67;;;14.27;;
66739;SDS011;53653;52.188;8.602;2023-12-07T01:36:00;39.07;;;16.50;;
66739;SDS011;53653;52.188;8.602;2023-12-07T01:38:26;38.77;;;14.33;;
66739;SDS011;53653;52.188;8.602;2023-12-07T01:40:51;36.07;;;15.13;;
66739;SDS011;53653;52.188;8.602;2023-12-07T01:43:19;40.35;;;15.52;;
66739;SDS011;53653;52.188;8.602;2023-12-07T01:45:47;38.67;;;14.53;;
66739;SDS011;53653;52.188;8.602;2023-12-07T01:48:13;37.10;;;15.38;;
66739;SDS011;53653;52.188;8.602;2023-12-07T01:50:38;38.13;;;15.60;;
66739;SDS011;53653;52.188;8.602;2023-12-07T01:53:04;36.70;;;15.60;;
66739;SDS011;53653;52.188;8.602;2023-12-07T01:55:31;38.65;;;16.38;;
66739;SDS011;53653;52.188;8.602;2023-12-07T01:57:57;37.78;;;14.55;;
66739;SDS011;53653;52.188;8.602;2023-12-07T02:00:23;38.30;;;15.37;;
66739;SDS011;53653;52.188;8.602;2023-12-07T02:02:50;38.60;;;15.75;;
66739;SDS011;53653;52.188;8.602;2023-12-07T02:05:16;40.22;;;15.57;;
66739;SDS011;53653;52.188;8.602;2023-12-07T02:07:42;39.90;;;14.60;;
66739;SDS011;53653;52.188;8.602;2023-12-07T02:10:07;38.00;;;15.40;;
66739;SDS011;53653;52.188;8.602;2023-12-07T02:12:33;39.03;;;14.97;;
66739;SDS011;53653;52.188;8.602;2023-12-07T02:15:00;39.85;;;14.95;;
66739;SDS011;53653;52.188;8.602;2023-12-07T02:17:28;33.22;;;13.55;;
66739;SDS011;53653;52.188;8.602;2023-12-07T02:20:13;39.00;;;14.82;;
66739;SDS011;53653;52.188;8.602;2023-12-07T02:22:54;37.00;;;13.95;;
66739;SDS011;53653;52.188;8.602;2023-12-07T02:25:23;34.57;;;13.97;;
66739;SDS011;53653;52.188;8.602;2023-12-07T02:27:53;37.97;;;15.63;;
66739;SDS011;53653;52.188;8.602;2023-12-07T02:30:18;43.33;;;17.20;;
66739;SDS011;53653;52.188;8.602;2023-12-07T02:32:44;40.65;;;15.57;;
66739;SDS011;53653;52.188;8.602;2023-12-07T02:35:11;38.83;;;15.13;;
66739;SDS011;53653;52.188;8.602;2023-12-07T02:37:41;34.70;;;14.30;;
66739;SDS011;53653;52.188;8.602;2023-12-07T02:40:09;36.35;;;15.38;;
66739;SDS011;53653;52.188;8.602;2023-12-07T02:42:35;36.85;;;15.70;;
66739;SDS011;53653;52.188;8.602;2023-12-07T02:45:03;36.60;;;15.27;;
66739;SDS011;53653;52.188;8.602;2023-12-07T02:47:29;41.50;;;15.70;;
66739;SDS011;53653;52.188;8.602;2023-12-07T02:49:55;39.15;;;15.98;;
66739;SDS011;53653;52.188;8.602;2023-12-07T02:52:20;39.03;;;15.53;;
66739;SDS011;53653;52.188;8.602;2023-12-07T02:54:46;38.47;;;15.80;;
66739;SDS011;53653;52.188;8.602;2023-12-07T02:57:11;40.05;;;15.77;;
66739;SDS011;53653;52.188;8.602;2023-12-07T02:59:37;41.63;;;15.27;;
66739;SDS011;53653;52.188;8.602;2023-12-07T03:02:03;42.13;;;16.70;;
66739;SDS011;53653;52.188;8.602;2023-12-07T03:04:28;35.03;;;15.25;;
66739;SDS011;53653;52.188;8.602;2023-12-07T03:06:53;40.70;;;16.87;;
66739;SDS011;53653;52.188;8.602;2023-12-07T03:09:19;36.93;;;16.43;;
66739;SDS011;53653;52.188;8.602;2023-12-07T03:11:44;39.70;;;15.63;;
66739;SDS011;53653;52.188;8.602;2023-12-07T03:14:10;39.67;;;15.60;;
66739;SDS011;53653;52.188;8.602;2023-12-07T03:16:35;39.77;;;14.53;;
66739;SDS011;53653;52.188;8.602;2023-12-07T03:19:01;38.35;;;15.48;;
66739;SDS011;53653;52.188;8.602;2023-12-07T03:21:27;42.03;;;15.43;;
66739;SDS011;53653;52.188;8.602;2023-12-07T03:23:52;39.13;;;16.60;;
66739;SDS011;53653;52.188;8.602;2023-12-07T03:26:18;45.77;;;15.43;;
66739;SDS011;53653;52.188;8.602;2023-12-07T03:28:43;32.93;;;14.60;;
66739;SDS011;53653;52.188;8.602;2023-12-07T03:31:08;36.97;;;14.83;;
66739;SDS011;53653;52.188;8.602;2023-12-07T03:33:34;35.50;;;15.03;;
66739;SDS011;53653;52.188;8.602;2023-12-07T03:35:59;35.17;;;14.88;;
66739;SDS011;53653;52.188;8.602;2023-12-07T03:38:24;35.87;;;15.13;;
66739;SDS011;53653;52.188;8.602;2023-12-07T03:40:50;36.00;;;14.43;;
66739;SDS011;53653;52.188;8.602;2023-12-07T03:43:17;38.43;;;14.80;;
66739;SDS011;53653;52.188;8.602;2023-12-07T03:45:44;38.80;;;15.25;;
66739;SDS011;53653;52.188;8.602;2023-12-07T03:48:10;41.23;;;14.53;;
66739;SDS011;53653;52.188;8.602;2023-12-07T03:50:35;41.63;;;15.73;;
66739;SDS011;53653;52.188;8.602;2023-12-07T03:53:01;37.35;;;14.95;;
66739;SDS011;53653;52.188;8.602;2023-12-07T03:55:26;36.90;;;14.50;;
66739;SDS011;53653;52.188;8.602;2023-12-07T03:57:51;37.23;;;15.40;;
66739;SDS011;53653;52.188;8.602;2023-12-07T04:00:17;42.50;;;16.83;;
66739;SDS011;53653;52.188;8.602;2023-12-07T04:02:42;44.30;;;17.35;;
66739;SDS011;53653;52.188;8.602;2023-12-07T04:05:08;38.57;;;15.40;;
66739;SDS011;53653;52.188;8.602;2023-12-07T04:07:33;42.80;;;16.23;;
66739;SDS011;53653;52.188;8.602;2023-12-07T04:09:59;41.13;;;15.40;;
66739;SDS011;53653;52.188;8.602;2023-12-07T04:12:25;34.53;;;14.97;;
66739;SDS011;53653;52.188;8.602;2023-12-07T04:14:50;36.78;;;15.82;;
66739;SDS011;53653;52.188;8.602;2023-12-07T04:17:17;35.83;;;15.02;;
66739;SDS011;53653;52.188;8.602;2023-12-07T04:19:42;38.33;;;14.00;;
66739;SDS011;53653;52.188;8.602;2023-12-07T04:22:08;35.35;;;13.88;;
66739;SDS011;53653;52.188;8.602;2023-12-07T04:24:33;35.80;;;14.20;;
66739;SDS011;53653;52.188;8.602;2023-12-07T04:26:58;35.63;;;14.40;;
66739;SDS011;53653;52.188;8.602;2023-12-07T04:29:24;38.23;;;14.77;;
66739;SDS011;53653;52.188;8.602;2023-12-07T04:31:49;36.53;;;14.83;;
66739;SDS011;53653;52.188;8.602;2023-12-07T04:34:15;35.25;;;15.15;;
66739;SDS011;53653;52.188;8.602;2023-12-07T04:36:40;37.07;;;14.83;;
66739;SDS011;53653;52.188;8.602;2023-12-07T04:39:05;39.10;;;14.97;;
66739;SDS011;53653;52.188;8.602;2023-12-07T04:41:31;35.70;;;13.73;;
66739;SDS011;53653;52.188;8.602;2023-12-07T04:43:57;39.23;;;14.07;;
66739;SDS011;53653;52.188;8.602;2023-12-07T04:46:22;35.33;;;14.63;;
66739;SDS011;53653;52.188;8.602;2023-12-07T04:48:47;36.63;;;14.93;;
66739;SDS011;53653;52.188;8.602;2023-12-07T04:51:13;36.40;;;14.90;;
66739;SDS011;53653;52.188;8.602;2023-12-07T04:53:38;34.97;;;15.50;;
66739;SDS011;53653;52.188;8.602;2023-12-07T04:56:04;34.70;;;14.43;;
66739;SDS011;53653;52.188;8.602;2023-12-07T04:58:30;35.47;;;14.25;;
66739;SDS011;53653;52.188;8.602;2023-12-07T05:00:55;37.73;;;14.83;;
66739;SDS011;53653;52.188;8.602;2023-12-07T05:03:20;38.60;;;15.73;;
66739;SDS011;53653;52.188;8.602;2023-12-07T05:05:46;38.72;;;15.68;;
66739;SDS011;53653;52.188;8.602;2023-12-07T05:08:13;37.40;;;14.95;;
66739;SDS011;53653;52.188;8.602;2023-12-07T05:10:38;35.47;;;14.73;;
66739;SDS011;53653;52.188;8.602;2023-12-07T05:13:03;34.47;;;14.57;;
66739;SDS011;53653;52.188;8.602;2023-12-07T05:15:29;32.15;;;14.38;;
66739;SDS011;53653;52.188;8.602;2023-12-07T05:17:54;37.70;;;14.90;;
66739;SDS011;53653;52.188;8.602;2023-12-07T05:20:20;33.30;;;14.83;;
66739;SDS011;53653;52.188;8.602;2023-12-07T05:22:47;36.50;;;15.25;;
66739;SDS011;53653;52.188;8.602;2023-12-07T05:25:13;37.27;;;16.20;;
66739;SDS011;53653;52.188;8.602;2023-12-07T05:27:39;33.97;;;14.52;;
66739;SDS011;53653;52.188;8.602;2023-12-07T05:30:04;36.23;;;14.83;;
66739;SDS011;53653;52.188;8.602;2023-12-07T05:32:30;35.85;;;14.63;;
66739;SDS011;53653;52.188;8.602;2023-12-07T05:34:56;38.47;;;15.27;;
66739;SDS011;53653;52.188;8.602;2023-12-07T05:37:21;37.27;;;16.13;;
66739;SDS011;53653;52.188;8.602;2023-12-07T05:39:47;39.27;;;15.73;;
66739;SDS011;53653;52.188;8.602;2023-12-07T05:42:12;38.57;;;15.83;;
66739;SDS011;53653;52.188;8.602;2023-12-07T05:44:38;39.33;;;17.37;;
66739;SDS011;53653;52.188;8.602;2023-12-07T05:47:03;40.57;;;16.63;;
66739;SDS011;53653;52.188;8.602;2023-12-07T05:49:29;36.47;;;14.95;;
66739;SDS011;53653;52.188;8.602;2023-12-07T05:51:54;33.90;;;15.07;;
66739;SDS011;53653;52.188;8.602;2023-12-07T05:54:20;35.30;;;14.53;;
66739;SDS011;53653;52.188;8.602;2023-12-07T05:56:48;37.20;;;14.30;;
66739;SDS011;53653;52.188;8.602;2023-12-07T05:59:13;37.33;;;15.20;;
66739;SDS011;53653;52.188;8.602;2023-12-07T06:01:39;35.97;;;14.80;;
66739;SDS011;53653;52.188;8.602;2023-12-07T06:04:06;34.97;;;14.63;;
66739;SDS011;53653;52.188;8.602;2023-12-07T06:06:33;36.92;;;14.73;;
66739;SDS011;53653;52.188;8.602;2023-12-07T06:08:59;38.67;;;15.40;;
66739;SDS011;53653;52.188;8.602;2023-12-07T06:11:24;37.27;;;15.67;;
66739;SDS011;53653;52.188;8.602;2023-12-07T06:13:50;37.83;;;14.77;;
66739;SDS011;53653;52.188;8.602;2023-12-07T06:16:15;39.73;;;15.80;;
66739;SDS011;53653;52.188;8.602;2023-12-07T06:18:42;36.88;;;15.65;;
66739;SDS011;53653;52.188;8.602;2023-12-07T06:21:08;35.47;;;14.68;;
66739;SDS011;53653;52.188;8.602;2023-12-07T06:23:33;38.20;;;15.43;;
66739;SDS011;53653;52.188;8.602;2023-12-07T06:25:59;36.97;;;15.60;;
66739;SDS011;53653;52.188;8.602;2023-12-07T06:28:24;41.95;;;16.23;;
66739;SDS011;53653;52.188;8.602;2023-12-07T06:30:50;43.83;;;17.93;;
66739;SDS011;53653;52.188;8.602;2023-12-07T06:33:15;40.87;;;16.93;;
66739;SDS011;53653;52.188;8.602;2023-12-07T06:35:40;46.57;;;18.80;;
66739;SDS011;53653;52.188;8.602;2023-12-07T06:38:06;40.90;;;17.67;;
66739;SDS011;53653;52.188;8.602;2023-12-07T06:40:32;44.33;;;18.73;;
66739;SDS011;53653;52.188;8.602;2023-12-07T06:42:57;41.92;;;17.88;;
66739;SDS011;53653;52.188;8.602;2023-12-07T06:45:23;42.60;;;17.40;;
66739;SDS011;53653;52.188;8.602;2023-12-07T06:47:49;43.15;;;17.88;;
66739;SDS011;53653;52.188;8.602;2023-12-07T06:50:14;41.73;;;16.43;;
66739;SDS011;53653;52.188;8.602;2023-12-07T06:52:40;43.07;;;18.50;;
66739;SDS011;53653;52.188;8.602;2023-12-07T06:55:06;40.73;;;17.27;;
66739;SDS011;53653;52.188;8.602;2023-12-07T06:57:32;42.33;;;17.52;;
66739;SDS011;53653;52.188;8.602;2023-12-07T06:59:58;41.75;;;17.73;;
66739;SDS011;53653;52.188;8.602;2023-12-07T07:02:23;42.23;;;17.43;;
66739;SDS011;53653;52.188;8.602;2023-12-07T07:04:49;42.60;;;17.83;;
66739;SDS011;53653;52.188;8.602;2023-12-07T07:07:15;45.00;;;18.53;;
66739;SDS011;53653;52.188;8.602;2023-12-07T07:09:40;44.92;;;17.92;;
66739;SDS011;53653;52.188;8.602;2023-12-07T07:12:06;47.40;;;20.20;;
66739;SDS011;53653;52.188;8.602;2023-12-07T07:14:31;45.03;;;19.00;;
66739;SDS011;53653;52.188;8.602;2023-12-07T07:16:58;44.70;;;18.30;;
66739;SDS011;53653;52.188;8.602;2023-12-07T07:19:23;44.90;;;18.33;;
66739;SDS011;53653;52.188;8.602;2023-12-07T07:21:48;45.40;;;17.47;;
66739;SDS011;53653;52.188;8.602;2023-12-07T07:24:14;43.50;;;18.10;;
66739;SDS011;53653;52.188;8.602;2023-12-07T07:26:39;46.63;;;18.50;;
66739;SDS011;53653;52.188;8.602;2023-12-07T07:29:05;44.20;;;19.13;;
66739;SDS011;53653;52.188;8.602;2023-12-07T07:31:31;46.37;;;19.80;;
66739;SDS011;53653;52.188;8.602;2023-12-07T07:33:56;47.05;;;19.23;;
66739;SDS011;53653;52.188;8.602;2023-12-07T07:36:22;46.77;;;18.87;;
66739;SDS011;53653;52.188;8.602;2023-12-07T07:38:47;48.63;;;20.40;;
66739;SDS011;53653;52.188;8.602;2023-12-07T07:41:13;54.05;;;21.70;;
66739;SDS011;53653;52.188;8.602;2023-12-07T07:43:39;49.97;;;20.67;;
66739;SDS011;53653;52.188;8.602;2023-12-07T07:46:04;58.35;;;21.65;;
66739;SDS011;53653;52.188;8.602;2023-12-07T07:48:30;57.70;;;23.35;;
66739;SDS011;53653;52.188;8.602;2023-12-07T07:50:56;49.53;;;21.03;;
66739;SDS011;53653;52.188;8.602;2023-12-07T07:53:22;47.97;;;20.95;;
66739;SDS011;53653;52.188;8.602;2023-12-07T07:55:47;53.27;;;21.10;;
66739;SDS011;53653;52.188;8.602;2023-12-07T07:58:13;56.37;;;22.40;;
66739;SDS011;53653;52.188;8.602;2023-12-07T08:00:38;50.17;;;21.07;;
66739;SDS011;53653;52.188;8.602;2023-12-07T08:03:04;53.47;;;21.77;;
66739;SDS011;53653;52.188;8.602;2023-12-07T08:05:30;56.30;;;21.97;;
66739;SDS011;53653;52.188;8.602;2023-12-07T08:07:55;61.22;;;23.75;;
66739;SDS011;53653;52.188;8.602;2023-12-07T08:10:21;54.43;;;23.20;;
66739;SDS011;53653;52.188;8.602;2023-12-07T08:12:46;59.57;;;23.43;;
66739;SDS011;53653;52.188;8.602;2023-12-07T08:15:12;61.27;;;23.47;;
66739;SDS011;53653;52.188;8.602;2023-12-07T08:17:38;66.60;;;24.37;;
66739;SDS011;53653;52.188;8.602;2023-12-07T08:20:06;63.47;;;22.48;;
66739;SDS011;53653;52.188;8.602;2023-12-07T08:22:34;62.17;;;24.17;;
66739;SDS011;53653;52.188;8.602;2023-12-07T08:24:59;66.70;;;25.25;;
66739;SDS011;53653;52.188;8.602;2023-12-07T08:27:25;67.43;;;24.63;;
66739;SDS011;53653;52.188;8.602;2023-12-07T08:29:50;64.40;;;23.95;;
66739;SDS011;53653;52.188;8.602;2023-12-07T08:32:16;63.43;;;23.90;;
66739;SDS011;53653;52.188;8.602;2023-12-07T08:34:44;61.75;;;23.77;;
66739;SDS011;53653;52.188;8.602;2023-12-07T08:37:09;61.17;;;23.70;;
66739;SDS011;53653;52.188;8.602;2023-12-07T08:39:35;62.65;;;23.67;;
66739;SDS011;53653;52.188;8.602;2023-12-07T08:42:00;59.27;;;23.70;;
66739;SDS011;53653;52.188;8.602;2023-12-07T08:44:26;57.27;;;20.67;;
66739;SDS011;53653;52.188;8.602;2023-12-07T08:46:52;62.97;;;23.02;;
66739;SDS011;53653;52.188;8.602;2023-12-07T08:49:17;61.17;;;24.10;;
66739;SDS011;53653;52.188;8.602;2023-12-07T08:51:43;65.43;;;23.33;;
66739;SDS011;53653;52.188;8.602;2023-12-07T08:54:08;45.20;;;17.40;;
66739;SDS011;53653;52.188;8.602;2023-12-07T08:56:34;61.10;;;22.47;;
66739;SDS011;53653;52.188;8.602;2023-12-07T08:58:59;54.33;;;20.45;;
66739;SDS011;53653;52.188;8.602;2023-12-07T09:01:25;66.93;;;21.67;;
66739;SDS011;53653;52.188;8.602;2023-12-07T09:03:51;53.45;;;19.58;;
66739;SDS011;53653;52.188;8.602;2023-12-07T09:06:17;44.70;;;17.17;;
66739;SDS011;53653;52.188;8.602;2023-12-07T09:08:43;59.03;;;21.47;;
66739;SDS011;53653;52.188;8.602;2023-12-07T09:11:08;57.17;;;21.43;;
66739;SDS011;53653;52.188;8.602;2023-12-07T09:13:34;66.57;;;21.80;;
66739;SDS011;53653;52.188;8.602;2023-12-07T09:15:59;55.08;;;21.17;;
66739;SDS011;53653;52.188;8.602;2023-12-07T09:18:24;60.53;;;20.53;;
66739;SDS011;53653;52.188;8.602;2023-12-07T09:20:50;56.83;;;20.80;;
66739;SDS011;53653;52.188;8.602;2023-12-07T09:23:16;55.83;;;21.10;;
66739;SDS011;53653;52.188;8.602;2023-12-07T09:25:42;53.53;;;20.35;;
66739;SDS011;53653;52.188;8.602;2023-12-07T09:28:08;59.78;;;22.10;;
66739;SDS011;53653;52.188;8.602;2023-12-07T09:30:33;60.03;;;22.10;;
66739;SDS011;53653;52.188;8.602;2023-12-07T09:32:59;57.17;;;20.38;;
66739;SDS011;53653;52.188;8.602;2023-12-07T09:35:25;46.00;;;17.70;;
66739;SDS011;53653;52.188;8.602;2023-12-07T09:37:51;54.50;;;19.90;;
66739;SDS011;53653;52.188;8.602;2023-12-07T09:40:17;51.43;;;17.90;;
66739;SDS011;53653;52.188;8.602;2023-12-07T09:42:45;56.72;;;17.73;;
66739;SDS011;53653;52.188;8.602;2023-12-07T09:45:11;49.83;;;17.35;;
66739;SDS011;53653;52.188;8.602;2023-12-07T09:47:37;52.93;;;17.87;;
66739;SDS011;53653;52.188;8.602;2023-12-07T09:50:07;51.55;;;17.75;;
66739;SDS011;53653;52.188;8.602;2023-12-07T09:52:37;51.97;;;19.02;;
66739;SDS011;53653;52.188;8.602;2023-12-07T09:55:03;53.38;;;16.27;;
66739;SDS011;53653;52.188;8.602;2023-12-07T09:57:29;46.77;;;16.07;;
66739;SDS011;53653;52.188;8.602;2023-12-07T09:59:55;45.85;;;14.02;;
66739;SDS011;53653;52.188;8.602;2023-12-07T10:02:21;53.63;;;18.63;;
66739;SDS011;53653;52.188;8.602;2023-12-07T10:04:46;58.95;;;19.85;;
66739;SDS011;53653;52.188;8.602;2023-12-07T10:07:13;56.03;;;18.80;;
66739;SDS011;53653;52.188;8.602;2023-12-07T10:09:39;46.17;;;16.50;;
66739;SDS011;53653;52.188;8.602;2023-12-07T10:12:07;56.35;;;18.52;;
66739;SDS011;53653;52.188;8.602;2023-12-07T10:14:33;55.80;;;17.23;;
66739;SDS011;53653;52.188;8.602;2023-12-07T10:16:58;55.53;;;17.43;;
66739;SDS011;53653;52.188;8.602;2023-12-07T10:19:24;55.83;;;19.23;;
66739;SDS011;53653;52.188;8.602;2023-12-07T10:21:50;61.88;;;18.63;;
66739;SDS011;53653;52.188;8.602;2023-12-07T10:24:21;58.30;;;18.55;;
66739;SDS011;53653;52.188;8.602;2023-12-07T10:26:48;69.93;;;20.27;;
66739;SDS011;53653;52.188;8.602;2023-12-07T10:29:14;57.50;;;18.23;;
66739;SDS011;53653;52.188;8.602;2023-12-07T10:31:42;64.32;;;20.40;;
66739;SDS011;53653;52.188;8.602;2023-12-07T10:34:09;67.85;;;20.48;;
66739;SDS011;53653;52.188;8.602;2023-12-07T10:36:34;60.70;;;18.97;;
66739;SDS011;53653;52.188;8.602;2023-12-07T10:39:00;64.07;;;19.33;;
66739;SDS011;53653;52.188;8.602;2023-12-07T10:41:25;65.25;;;18.10;;
66739;SDS011;53653;52.188;8.602;2023-12-07T10:43:55;62.93;;;19.40;;
66739;SDS011;53653;52.188;8.602;2023-12-07T10:46:24;62.65;;;20.23;;
66739;SDS011;53653;52.188;8.602;2023-12-07T10:49:00;59.33;;;19.10;;
66739;SDS011;53653;52.188;8.602;2023-12-07T10:51:30;54.38;;;19.02;;
66739;SDS011;53653;52.188;8.602;2023-12-07T10:54:00;64.53;;;19.02;;
66739;SDS011;53653;52.188;8.602;2023-12-07T10:56:29;57.05;;;19.52;;
66739;SDS011;53653;52.188;8.602;2023-12-07T10:59:00;62.17;;;18.48;;
66739;SDS011;53653;52.188;8.602;2023-12-07T11:01:26;38.77;;;14.70;;
66739;SDS011;53653;52.188;8.602;2023-12-07T11:03:51;57.13;;;18.10;;
66739;SDS011;53653;52.188;8.602;2023-12-07T11:06:20;47.47;;;14.95;;
66739;SDS011;53653;52.188;8.602;2023-12-07T11:08:47;54.95;;;17.80;;
66739;SDS011;53653;52.188;8.602;2023-12-07T11:12:17;53.03;;;18.20;;
66739;SDS011;53653;52.188;8.602;2023-12-07T11:14:16;58.55;;;17.02;;
66739;SDS011;53653;52.188;8.602;2023-12-07T11:16:43;50.05;;;18.60;;
66739;SDS011;53653;52.188;8.602;2023-12-07T11:21:54;49.85;;;17.90;;
66739;SDS011;53653;52.188;8.602;2023-12-07T11:24:20;54.17;;;17.47;;
66739;SDS011;53653;52.188;8.602;2023-12-07T11:26:48;51.58;;;17.90;;
66739;SDS011;53653;52.188;8.602;2023-12-07T11:29:14;38.53;;;13.10;;
66739;SDS011;53653;52.188;8.602;2023-12-07T11:31:39;49.87;;;16.23;;
66739;SDS011;53653;52.188;8.602;2023-12-07T11:34:07;51.93;;;16.73;;
66739;SDS011;53653;52.188;8.602;2023-12-07T11:36:38;49.15;;;17.63;;
66739;SDS011;53653;52.188;8.602;2023-12-07T11:41:34;45.08;;;16.83;;
66739;SDS011;53653;52.188;8.602;2023-12-07T11:44:05;50.27;;;16.47;;
66739;SDS011;53653;52.188;8.602;2023-12-07T11:46:30;46.80;;;17.50;;
66739;SDS011;53653;52.188;8.602;2023-12-07T11:48:56;50.67;;;16.40;;
66739;SDS011;53653;52.188;8.602;2023-12-07T11:51:23;44.33;;;16.95;;
66739;SDS011;53653;52.188;8.602;2023-12-07T11:53:49;56.53;;;17.97;;
66739;SDS011;53653;52.188;8.602;2023-12-07T11:56:15;43.83;;;16.33;;
66739;SDS011;53653;52.188;8.602;2023-12-07T11:58:45;44.75;;;15.80;;
66739;SDS011;53653;52.188;8.602;2023-12-07T12:01:11;41.37;;;15.13;;
66739;SDS011;53653;52.188;8.602;2023-12-07T12:03:37;41.20;;;15.02;;
66739;SDS011;53653;52.188;8.602;2023-12-07T12:06:03;43.30;;;16.17;;
66739;SDS011;53653;52.188;8.602;2023-12-07T12:08:30;42.17;;;16.38;;
66739;SDS011;53653;52.188;8.602;2023-12-07T12:10:56;43.22;;;14.85;;
66739;SDS011;53653;52.188;8.602;2023-12-07T12:13:33;45.27;;;15.50;;
66739;SDS011;53653;52.188;8.602;2023-12-07T12:16:00;41.05;;;15.10;;
66739;SDS011;53653;52.188;8.602;2023-12-07T12:18:25;45.13;;;15.70;;
66739;SDS011;53653;52.188;8.602;2023-12-07T12:20:52;44.75;;;15.93;;
66739;SDS011;53653;52.188;8.602;2023-12-07T12:23:18;54.30;;;18.73;;
66739;SDS011;53653;52.188;8.602;2023-12-07T12:25:44;47.25;;;17.45;;
66739;SDS011;53653;52.188;8.602;2023-12-07T12:28:10;50.65;;;16.77;;
66739;SDS011;53653;52.188;8.602;2023-12-07T12:30:40;41.22;;;15.73;;
66739;SDS011;53653;52.188;8.602;2023-12-07T12:33:05;44.57;;;15.57;;
66739;SDS011;53653;52.188;8.602;2023-12-07T12:35:31;42.77;;;15.60;;
66739;SDS011;53653;52.188;8.602;2023-12-07T12:37:57;39.80;;;15.15;;
66739;SDS011;53653;52.188;8.602;2023-12-07T12:40:23;44.20;;;15.77;;
66739;SDS011;53653;52.188;8.602;2023-12-07T12:42:49;42.00;;;16.33;;
66739;SDS011;53653;52.188;8.602;2023-12-07T12:45:17;44.60;;;16.00;;
66739;SDS011;53653;52.188;8.602;2023-12-07T12:47:47;44.83;;;16.55;;
66739;SDS011;53653;52.188;8.602;2023-12-07T12:50:32;44.53;;;17.17;;
66739;SDS011;53653;52.188;8.602;2023-12-07T12:53:08;44.13;;;15.00;;
66739;SDS011;53653;52.188;8.602;2023-12-07T12:55:39;43.60;;;16.07;;
66739;SDS011;53653;52.188;8.602;2023-12-07T12:58:06;44.80;;;15.77;;
66739;SDS011;53653;52.188;8.602;2023-12-07T13:00:33;42.20;;;14.75;;
66739;SDS011;53653;52.188;8.602;2023-12-07T13:03:00;46.03;;;17.25;;
66739;SDS011;53653;52.188;8.602;2023-12-07T13:05:26;43.67;;;17.13;;
66739;SDS011;53653;52.188;8.602;2023-12-07T13:07:52;46.97;;;16.87;;
66739;SDS011;53653;52.188;8.602;2023-12-07T13:10:17;47.03;;;17.02;;
66739;SDS011;53653;52.188;8.602;2023-12-07T13:12:43;44.13;;;15.87;;
66739;SDS011;53653;52.188;8.602;2023-12-07T13:15:10;41.38;;;15.50;;
66739;SDS011;53653;52.188;8.602;2023-12-07T13:17:37;47.05;;;16.70;;
66739;SDS011;53653;52.188;8.602;2023-12-07T13:20:05;41.15;;;15.75;;
66739;SDS011;53653;52.188;8.602;2023-12-07T13:22:33;39.25;;;15.23;;
66739;SDS011;53653;52.188;8.602;2023-12-07T13:24:58;43.93;;;16.37;;
66739;SDS011;53653;52.188;8.602;2023-12-07T13:27:24;48.33;;;17.03;;
66739;SDS011;53653;52.188;8.602;2023-12-07T13:29:49;43.60;;;16.27;;
66739;SDS011;53653;52.188;8.602;2023-12-07T13:32:15;39.42;;;15.07;;
66739;SDS011;53653;52.188;8.602;2023-12-07T13:34:40;34.43;;;13.90;;
66739;SDS011;53653;52.188;8.602;2023-12-07T13:37:06;31.93;;;12.50;;
66739;SDS011;53653;52.188;8.602;2023-12-07T13:39:33;31.80;;;13.32;;
66739;SDS011;53653;52.188;8.602;2023-12-07T13:41:59;35.65;;;12.82;;
66739;SDS011;53653;52.188;8.602;2023-12-07T13:44:27;33.17;;;12.13;;
66739;SDS011;53653;52.188;8.602;2023-12-07T13:46:53;34.00;;;12.90;;
66739;SDS011;53653;52.188;8.602;2023-12-07T13:49:19;31.90;;;13.23;;
66739;SDS011;53653;52.188;8.602;2023-12-07T13:51:46;31.47;;;11.37;;
66739;SDS011;53653;52.188;8.602;2023-12-07T13:54:11;32.60;;;11.73;;
66739;SDS011;53653;52.188;8.602;2023-12-07T13:56:37;33.47;;;12.47;;
66739;SDS011;53653;52.188;8.602;2023-12-07T13:59:02;26.80;;;10.37;;
66739;SDS011;53653;52.188;8.602;2023-12-07T14:01:28;32.90;;;11.88;;
66739;SDS011;53653;52.188;8.602;2023-12-07T14:03:57;34.93;;;12.33;;
66739;SDS011;53653;52.188;8.602;2023-12-07T14:06:23;34.17;;;13.50;;
66739;SDS011;53653;52.188;8.602;2023-12-07T14:08:49;29.98;;;12.02;;
66739;SDS011;53653;52.188;8.602;2023-12-07T14:11:15;29.13;;;10.97;;
66739;SDS011;53653;52.188;8.602;2023-12-07T14:13:44;29.73;;;11.05;;
66739;SDS011;53653;52.188;8.602;2023-12-07T14:16:12;32.78;;;13.13;;
66739;SDS011;53653;52.188;8.602;2023-12-07T14:18:37;30.23;;;13.00;;
66739;SDS011;53653;52.188;8.602;2023-12-07T14:21:03;39.07;;;13.20;;